createdAt,value
2022-12-01T00:01:22.749Z,61.70
2022-12-01T00:03:49.768Z,54.28
2022-12-01T00:06:20.225Z,55.00
2022-12-01T00:09:10.899Z,59.70
2022-12-01T00:11:39.842Z,59.38
2022-12-01T00:14:07.178Z,53.55
2022-12-01T00:16:34.108Z,63.05
2022-12-01T00:19:00.940Z,50.10
2022-12-01T00:21:28.742Z,51.03
2022-12-01T00:23:58.166Z,53.92
2022-12-01T00:26:27.219Z,64.78
2022-12-01T00:28:58.091Z,56.58
2022-12-01T00:31:26.185Z,62.15
2022-12-01T00:33:53.344Z,62.13
2022-12-01T00:36:21.531Z,59.58
2022-12-01T00:38:51.153Z,62.58
2022-12-01T00:41:18.205Z,59.95
2022-12-01T00:43:44.976Z,63.78
2022-12-01T00:46:11.708Z,61.20
2022-12-01T00:48:38.556Z,59.83
2022-12-01T00:51:05.646Z,63.55
2022-12-01T00:53:32.773Z,63.80
2022-12-01T00:56:00.031Z,58.70
2022-12-01T00:58:27.482Z,58.50
2022-12-01T01:01:02.473Z,55.33
2022-12-01T01:03:30.142Z,46.97
2022-12-01T01:06:00.272Z,56.38
2022-12-01T01:08:26.966Z,53.53
2022-12-01T01:10:53.654Z,54.13
2022-12-01T01:13:20.453Z,58.67
2022-12-01T01:16:02.627Z,54.78
2022-12-01T01:18:30.282Z,58.60
2022-12-01T01:21:10.715Z,60.10
2022-12-01T01:23:38.406Z,53.25
2022-12-01T01:26:14.553Z,55.08
2022-12-01T01:28:41.760Z,59.63
2022-12-01T01:31:11.843Z,60.60
2022-12-01T01:33:39.045Z,52.88
2022-12-01T01:36:07.185Z,57.83
2022-12-01T01:38:35.062Z,64.22
2022-12-01T01:41:03.787Z,56.38
2022-12-01T01:43:44.156Z,52.28
2022-12-01T01:46:18.409Z,57.22
2022-12-01T01:48:54.744Z,56.40
2022-12-01T01:51:49.277Z,59.05
2022-12-01T01:54:25.086Z,61.58
2022-12-01T01:56:54.773Z,58.53
2022-12-01T01:59:29.651Z,56.30
2022-12-01T02:02:06.559Z,59.42
2022-12-01T02:04:40.178Z,53.40
2022-12-01T02:07:15.580Z,62.22
2022-12-01T02:09:42.276Z,59.42
2022-12-01T02:12:46.875Z,55.45
2022-12-01T02:15:54.891Z,59.83
2022-12-01T02:18:50.328Z,55.65
2022-12-01T02:21:47.468Z,60.78
2022-12-01T02:24:26.120Z,61.60
2022-12-01T02:29:50.860Z,61.50
2022-12-01T02:32:28.140Z,60.33
2022-12-01T02:35:12.792Z,59.85
2022-12-01T02:38:19.082Z,55.72
2022-12-01T02:41:20.372Z,58.38
2022-12-01T02:44:05.784Z,55.20
2022-12-01T02:46:39.700Z,57.58
2022-12-01T02:49:19.459Z,61.03
2022-12-01T02:51:48.727Z,53.08
2022-12-01T02:54:16.013Z,56.80
2022-12-01T02:56:46.064Z,59.15
2022-12-01T02:59:15.294Z,56.10
2022-12-01T03:02:00.644Z,54.50
2022-12-01T03:04:56.422Z,55.42
2022-12-01T03:07:47.988Z,57.30
2022-12-01T03:10:33.826Z,53.67
2022-12-01T03:13:37.968Z,53.47
2022-12-01T03:16:39.068Z,64.90
2022-12-01T03:19:18.792Z,59.47
2022-12-01T03:22:04.855Z,56.70
2022-12-01T03:24:34.356Z,52.30
2022-12-01T03:27:04.328Z,49.50
2022-12-01T03:29:41.443Z,54.90
2022-12-01T03:32:20.522Z,53.15
2022-12-01T03:34:49.962Z,57.30
2022-12-01T03:37:32.286Z,50.65
2022-12-01T03:40:02.638Z,49.17
2022-12-01T03:42:43.378Z,56.08
2022-12-01T03:45:20.020Z,51.35
2022-12-01T03:47:47.091Z,50.85
2022-12-01T03:50:15.400Z,49.08
2022-12-01T03:53:02.289Z,45.33
2022-12-01T03:55:35.665Z,58.85
2022-12-01T03:58:25.976Z,46.58
2022-12-01T04:00:57.504Z,51.33
2022-12-01T04:03:26.508Z,49.90
2022-12-01T04:05:53.791Z,51.85
2022-12-01T04:08:20.627Z,48.42
2022-12-01T04:10:47.379Z,53.53
2022-12-01T04:13:22.744Z,51.72
2022-12-01T04:15:51.127Z,47.70
2022-12-01T04:18:19.079Z,47.85
2022-12-01T04:20:50.141Z,54.05
2022-12-01T04:23:35.329Z,54.22
2022-12-01T04:26:04.811Z,49.47
2022-12-01T04:28:31.780Z,53.58
2022-12-01T04:30:58.525Z,48.70
2022-12-01T04:33:25.771Z,48.63
2022-12-01T04:36:00.099Z,52.88
2022-12-01T04:38:30.561Z,48.70
2022-12-01T04:40:58.207Z,52.95
2022-12-01T04:43:25.087Z,53.33
2022-12-01T04:45:51.784Z,52.17
2022-12-01T04:48:18.604Z,49.67
2022-12-01T04:50:45.308Z,51.05
2022-12-01T04:53:12.025Z,49.75
2022-12-01T04:55:39.392Z,53.60
2022-12-01T04:58:06.810Z,50.00
2022-12-01T05:00:34.301Z,49.05
2022-12-01T05:03:01.218Z,49.20
2022-12-01T05:05:28.130Z,51.03
2022-12-01T05:07:55.003Z,47.95
2022-12-01T05:10:22.300Z,53.50
2022-12-01T05:12:49.691Z,47.90
2022-12-01T05:15:17.060Z,53.53
2022-12-01T05:17:44.452Z,51.47
2022-12-01T05:20:39.661Z,51.55
2022-12-01T05:23:08.261Z,56.35
2022-12-01T05:25:37.897Z,55.33
2022-12-01T05:28:06.516Z,55.70
2022-12-01T05:30:33.423Z,61.67
2022-12-01T05:33:00.211Z,58.83
2022-12-01T05:35:27.419Z,54.45
2022-12-01T05:37:54.244Z,60.63
2022-12-01T05:40:21.066Z,53.33
2022-12-01T05:42:47.867Z,55.42
2022-12-01T05:45:14.747Z,60.45
2022-12-01T05:47:41.510Z,58.65
2022-12-01T05:50:09.067Z,55.60
2022-12-01T05:52:36.622Z,54.25
2022-12-01T05:55:05.731Z,58.65
2022-12-01T05:57:33.926Z,57.72
2022-12-01T06:00:00.696Z,57.53
2022-12-01T06:02:27.446Z,46.40
2022-12-01T06:04:54.190Z,49.83
2022-12-01T06:07:23.456Z,55.58
2022-12-01T06:09:50.534Z,50.95
2022-12-01T06:12:19.229Z,50.97
2022-12-01T06:14:47.515Z,49.45
2022-12-01T06:17:15.053Z,55.22
2022-12-01T06:19:43.351Z,50.67
2022-12-01T06:22:10.999Z,49.47
2022-12-01T06:24:37.680Z,54.05
2022-12-01T06:27:04.418Z,54.65
2022-12-01T06:29:31.224Z,53.30
2022-12-01T06:31:58.144Z,52.28
2022-12-01T06:34:24.914Z,55.63
2022-12-01T06:36:51.690Z,56.00
2022-12-01T06:39:18.531Z,51.65
2022-12-01T06:41:45.268Z,53.50
2022-12-01T06:44:12.044Z,53.05
2022-12-01T06:46:38.861Z,56.95
2022-12-01T06:49:05.824Z,49.80
2022-12-01T06:51:34.346Z,48.85
2022-12-01T06:54:05.433Z,54.40
2022-12-01T06:56:32.572Z,52.88
2022-12-01T06:58:59.764Z,55.20
2022-12-01T07:01:27.068Z,55.72
2022-12-01T07:03:54.808Z,54.63
2022-12-01T07:06:21.867Z,52.35
2022-12-01T07:08:48.693Z,51.42
2022-12-01T07:11:16.628Z,57.28
2022-12-01T07:13:49.432Z,53.10
2022-12-01T07:16:16.425Z,55.40
2022-12-01T07:18:45.091Z,53.97
2022-12-01T07:21:15.068Z,53.72
2022-12-01T07:23:42.447Z,53.63
2022-12-01T07:26:16.415Z,50.70
2022-12-01T07:28:44.662Z,46.63
2022-12-01T07:31:18.452Z,50.88
2022-12-01T07:33:45.485Z,54.47
2022-12-01T07:36:13.646Z,55.53
2022-12-01T07:38:40.750Z,51.22
2022-12-01T07:41:12.291Z,53.63
2022-12-01T07:43:39.962Z,61.20
2022-12-01T07:46:18.920Z,50.00
2022-12-01T07:48:49.277Z,54.72
2022-12-01T07:51:17.356Z,50.17
2022-12-01T07:53:50.404Z,47.60
2022-12-01T07:56:19.009Z,51.22
2022-12-01T07:58:47.448Z,54.45
2022-12-01T08:01:27.473Z,49.30
2022-12-01T08:03:57.471Z,50.20
2022-12-01T08:06:26.938Z,54.63
2022-12-01T08:08:53.704Z,52.35
2022-12-01T08:11:25.073Z,56.70
2022-12-01T08:13:53.245Z,53.03
2022-12-01T08:16:23.200Z,51.60
2022-12-01T08:18:51.073Z,54.30
2022-12-01T08:21:21.161Z,50.72
2022-12-01T08:23:48.850Z,50.88
2022-12-01T08:26:18.531Z,51.05
2022-12-01T08:28:46.639Z,48.05
2022-12-01T08:31:22.087Z,49.88
2022-12-01T08:33:50.655Z,51.63
2022-12-01T08:36:18.798Z,47.70
2022-12-01T08:38:49.525Z,49.30
2022-12-01T08:41:17.196Z,57.95
2022-12-01T08:44:00.317Z,54.00
2022-12-01T08:46:32.461Z,50.22
2022-12-01T08:48:59.431Z,51.67
2022-12-01T08:51:27.112Z,53.72
2022-12-01T08:53:57.433Z,51.72
2022-12-01T08:56:29.012Z,53.28
2022-12-01T08:58:56.537Z,54.70
2022-12-01T09:01:23.792Z,52.22
2022-12-01T09:04:05.124Z,53.90
2022-12-01T09:06:39.881Z,55.97
2022-12-01T09:09:09.646Z,52.55
2022-12-01T09:11:37.353Z,55.63
2022-12-01T09:14:04.112Z,53.42
2022-12-01T09:16:31.650Z,54.53
2022-12-01T09:18:58.488Z,49.08
2022-12-01T09:21:31.334Z,56.20
2022-12-01T09:23:59.672Z,57.63
2022-12-01T09:26:27.176Z,56.40
2022-12-01T09:28:58.358Z,55.95
2022-12-01T09:31:25.934Z,53.92
2022-12-01T09:34:17.228Z,57.58
2022-12-01T09:36:44.582Z,62.22
2022-12-01T09:39:20.754Z,55.45
2022-12-01T09:41:56.128Z,61.15
2022-12-01T09:44:47.854Z,57.92
2022-12-01T09:47:36.716Z,59.63
2022-12-01T09:50:18.803Z,64.10
2022-12-01T09:52:45.626Z,66.00
2022-12-01T09:55:16.324Z,55.47
2022-12-01T09:57:47.414Z,54.55
2022-12-01T10:00:22.188Z,56.22
2022-12-01T10:03:16.668Z,53.90
2022-12-01T10:06:26.193Z,56.90
2022-12-01T10:08:59.729Z,58.03
2022-12-01T10:11:39.624Z,53.03
2022-12-01T10:14:20.139Z,48.88
2022-12-01T10:17:14.382Z,54.05
2022-12-01T10:20:06.116Z,57.72
2022-12-01T10:22:53.761Z,52.20
2022-12-01T10:25:24.753Z,52.53
2022-12-01T10:28:17.541Z,47.85
2022-12-01T10:30:53.401Z,42.58
2022-12-01T10:33:24.405Z,51.20
2022-12-01T10:35:52.870Z,53.03
2022-12-01T10:38:32.636Z,47.00
2022-12-01T10:41:02.404Z,42.17
2022-12-01T10:43:59.419Z,51.88
2022-12-01T10:46:48.266Z,51.40
2022-12-01T10:49:18.023Z,55.55
2022-12-01T10:51:52.999Z,49.20
2022-12-01T10:54:22.601Z,38.28
2022-12-01T10:56:55.965Z,43.45
2022-12-01T10:59:27.580Z,45.30
2022-12-01T11:01:55.100Z,39.53
2022-12-01T11:04:45.207Z,43.05
2022-12-01T11:07:19.107Z,39.78
2022-12-01T11:09:55.021Z,41.67
2022-12-01T11:12:23.493Z,43.35
2022-12-01T11:14:54.325Z,45.17
2022-12-01T11:17:42.863Z,45.50
2022-12-01T11:20:38.546Z,46.00
2022-12-01T11:23:26.714Z,44.25
2022-12-01T11:25:59.432Z,42.75
2022-12-01T11:28:26.824Z,42.60
2022-12-01T11:31:10.348Z,46.65
2022-12-01T11:33:51.131Z,40.90
2022-12-01T11:36:36.680Z,43.95
2022-12-01T11:39:05.020Z,40.15
2022-12-01T11:41:40.878Z,39.95
2022-12-01T11:47:24.418Z,46.13
2022-12-01T11:50:01.919Z,42.40
2022-12-01T11:52:36.605Z,42.30
2022-12-01T11:55:22.876Z,41.88
2022-12-01T11:57:55.483Z,42.17
2022-12-01T12:00:28.656Z,47.38
2022-12-01T12:03:24.509Z,51.15
2022-12-01T12:06:39.946Z,47.90
2022-12-01T12:09:30.795Z,49.33
2022-12-01T12:12:31.113Z,46.08
2022-12-01T12:15:18.854Z,46.90
2022-12-01T12:18:15.854Z,48.05
2022-12-01T12:21:01.295Z,42.95
2022-12-01T12:24:05.307Z,38.53
2022-12-01T12:26:54.514Z,43.25
2022-12-01T12:29:52.279Z,41.30
2022-12-01T12:32:44.595Z,42.90
2022-12-01T12:35:20.111Z,45.80
2022-12-01T12:38:34.693Z,37.80
2022-12-01T12:41:29.774Z,45.53
2022-12-01T12:44:18.189Z,48.20
2022-12-01T12:47:27.986Z,47.30
2022-12-01T12:50:19.736Z,48.55
2022-12-01T12:52:54.708Z,55.00
2022-12-01T12:55:30.339Z,46.15
2022-12-01T12:58:10.794Z,69.90
2022-12-01T13:00:50.429Z,51.42
2022-12-01T13:03:33.944Z,48.78
2022-12-01T13:06:10.712Z,48.00
2022-12-01T13:08:53.179Z,51.58
2022-12-01T13:11:30.516Z,44.75
2022-12-01T13:14:18.226Z,47.17
2022-12-01T13:16:50.399Z,40.55
2022-12-01T13:19:32.410Z,45.08
2022-12-01T13:22:01.300Z,39.95
2022-12-01T13:24:31.374Z,41.85
2022-12-01T13:27:06.076Z,40.72
2022-12-01T13:29:43.833Z,41.90
2022-12-01T13:32:31.519Z,43.20
2022-12-01T13:35:00.660Z,40.17
2022-12-01T13:37:34.432Z,44.83
2022-12-01T13:40:30.938Z,38.63
2022-12-01T13:43:10.274Z,39.90
2022-12-01T13:45:40.673Z,42.97
2022-12-01T13:48:29.979Z,41.63
2022-12-01T13:51:01.113Z,39.22
2022-12-01T13:53:38.892Z,40.65
2022-12-01T13:56:27.610Z,42.05
2022-12-01T13:58:55.143Z,41.47
2022-12-01T14:01:22.470Z,44.30
2022-12-01T14:04:18.165Z,41.40
2022-12-01T14:06:50.079Z,41.65
2022-12-01T14:09:36.604Z,43.08
2022-12-01T14:12:16.954Z,44.55
2022-12-01T14:14:57.412Z,42.80
2022-12-01T14:17:29.871Z,46.67
2022-12-01T14:20:20.537Z,44.67
2022-12-01T14:23:13.138Z,42.58
2022-12-01T14:25:41.825Z,50.88
2022-12-01T14:28:55.782Z,42.17
2022-12-01T14:31:24.112Z,46.47
2022-12-01T14:34:02.770Z,42.65
2022-12-01T14:39:22.364Z,54.35
2022-12-01T14:41:58.239Z,49.10
2022-12-01T14:44:48.942Z,45.25
2022-12-01T14:47:42.021Z,44.80
2022-12-01T14:50:25.246Z,49.88
2022-12-01T14:53:08.949Z,47.38
2022-12-01T14:55:47.499Z,39.83
2022-12-01T14:58:22.656Z,32.13
2022-12-01T15:01:14.155Z,38.13
2022-12-01T15:03:50.599Z,44.15
2022-12-01T15:06:20.825Z,40.50
2022-12-01T15:09:39.548Z,37.25
2022-12-01T15:12:07.677Z,37.80
2022-12-01T15:14:49.503Z,42.60
2022-12-01T15:17:34.595Z,43.95
2022-12-01T15:22:34.046Z,50.78
2022-12-01T15:25:15.589Z,49.38
2022-12-01T15:27:43.393Z,49.60
2022-12-01T15:30:15.892Z,53.42
2022-12-01T15:32:45.906Z,51.30
2022-12-01T15:35:22.829Z,56.58
2022-12-01T15:37:52.273Z,60.58
2022-12-01T15:43:39.824Z,52.92
2022-12-01T15:46:18.994Z,51.70
2022-12-01T15:48:46.034Z,53.55
2022-12-01T15:51:29.607Z,57.70
2022-12-01T15:54:01.540Z,55.03
2022-12-01T15:56:40.621Z,55.08
2022-12-01T15:59:23.987Z,56.95
2022-12-01T16:01:50.967Z,52.08
2022-12-01T16:04:22.982Z,54.70
2022-12-01T16:07:10.600Z,49.13
2022-12-01T16:09:40.402Z,51.63
2022-12-01T16:12:23.185Z,55.25
2022-12-01T16:15:00.217Z,47.83
2022-12-01T16:17:49.655Z,54.42
2022-12-01T16:20:42.940Z,54.30
2022-12-01T16:23:19.239Z,56.75
2022-12-01T16:25:48.526Z,46.67
2022-12-01T16:28:33.001Z,50.72
2022-12-01T16:30:59.818Z,53.38
2022-12-01T16:33:29.011Z,54.53
2022-12-01T16:36:00.216Z,53.50
2022-12-01T16:38:29.100Z,53.88
2022-12-01T16:40:59.875Z,49.50
2022-12-01T16:43:29.362Z,50.05
2022-12-01T16:46:06.586Z,54.15
2022-12-01T16:48:34.996Z,50.85
2022-12-01T16:51:06.409Z,53.17
2022-12-01T16:53:33.328Z,54.42
2022-12-01T16:56:03.332Z,53.80
2022-12-01T16:58:30.488Z,44.65
2022-12-01T17:00:57.597Z,54.00
2022-12-01T17:03:28.201Z,49.88
2022-12-01T17:05:56.135Z,57.35
2022-12-01T17:08:23.277Z,57.38
2022-12-01T17:10:51.460Z,55.38
2022-12-01T17:13:25.471Z,55.00
2022-12-01T17:15:54.836Z,55.85
2022-12-01T17:18:24.141Z,57.15
2022-12-01T17:21:04.282Z,59.15
2022-12-01T17:23:32.985Z,50.00
2022-12-01T17:26:01.086Z,54.15
2022-12-01T17:28:27.865Z,56.97
2022-12-01T17:30:54.698Z,59.85
2022-12-01T17:33:21.506Z,53.22
2022-12-01T17:35:49.830Z,56.75
2022-12-01T17:38:16.802Z,59.20
2022-12-01T17:40:44.130Z,56.03
2022-12-01T17:43:15.392Z,56.70
2022-12-01T17:45:43.184Z,55.35
2022-12-01T17:48:09.999Z,57.90
2022-12-01T17:50:38.150Z,62.22
2022-12-01T17:53:04.858Z,78.57
2022-12-01T17:55:31.558Z,72.47
2022-12-01T17:57:58.811Z,55.35
2022-12-01T18:00:25.740Z,59.88
2022-12-01T18:02:52.549Z,60.13
2022-12-01T18:05:19.291Z,54.40
2022-12-01T18:07:46.122Z,63.08
2022-12-01T18:10:13.066Z,59.53
2022-12-01T18:12:39.777Z,54.92
2022-12-01T18:15:07.324Z,58.20
2022-12-01T18:17:34.544Z,64.07
2022-12-01T18:20:01.537Z,58.45
2022-12-01T18:22:28.289Z,61.38
2022-12-01T18:24:56.304Z,58.13
2022-12-01T18:27:23.180Z,56.85
2022-12-01T18:29:50.125Z,61.50
2022-12-01T18:32:17.408Z,58.13
2022-12-01T18:34:44.280Z,54.88
2022-12-01T18:37:11.027Z,61.30
2022-12-01T18:39:37.804Z,55.17
2022-12-01T18:42:05.203Z,59.30
2022-12-01T18:44:31.977Z,58.38
2022-12-01T18:46:59.172Z,60.63
2022-12-01T18:49:25.988Z,61.97
2022-12-01T18:51:52.773Z,53.22
2022-12-01T18:54:19.548Z,52.95
2022-12-01T18:56:52.812Z,60.90
2022-12-01T18:59:19.631Z,53.65
2022-12-01T19:01:48.455Z,60.33
2022-12-01T19:04:16.624Z,54.50
2022-12-01T19:06:45.776Z,55.60
2022-12-01T19:09:17.477Z,65.40
2022-12-01T19:11:44.617Z,54.03
2022-12-01T19:14:18.593Z,56.63
2022-12-01T19:16:46.754Z,53.10
2022-12-01T19:19:14.041Z,62.42
2022-12-01T19:21:42.824Z,56.90
2022-12-01T19:24:09.630Z,52.78
2022-12-01T19:26:36.444Z,56.42
2022-12-01T19:29:03.691Z,51.80
2022-12-01T19:31:30.498Z,51.92
2022-12-01T19:33:57.734Z,59.03
2022-12-01T19:36:27.762Z,54.72
2022-12-01T19:38:57.945Z,52.00
2022-12-01T19:41:26.232Z,56.72
2022-12-01T19:43:54.491Z,58.83
2022-12-01T19:46:24.249Z,51.10
2022-12-01T19:49:00.382Z,55.05
2022-12-01T19:51:32.321Z,49.85
2022-12-01T19:53:59.142Z,54.50
2022-12-01T19:56:26.178Z,51.67
2022-12-01T19:58:53.079Z,49.25
2022-12-01T20:01:20.773Z,55.85
2022-12-01T20:03:51.037Z,55.15
2022-12-01T20:06:22.643Z,51.80
2022-12-01T20:08:50.322Z,53.58
2022-12-01T20:11:18.050Z,52.08
2022-12-01T20:13:47.071Z,52.88
2022-12-01T20:16:23.535Z,52.25
2022-12-01T20:18:52.164Z,38.42
2022-12-01T20:21:24.969Z,52.13
2022-12-01T20:23:58.175Z,61.58
2022-12-01T20:26:35.166Z,57.42
2022-12-01T20:29:10.745Z,52.97
2022-12-01T20:31:38.622Z,60.67
2022-12-01T20:34:14.252Z,76.32
2022-12-01T20:36:41.236Z,62.13
2022-12-01T20:39:10.108Z,68.80
2022-12-01T20:41:38.076Z,57.58
2022-12-01T20:44:07.518Z,60.35
2022-12-01T20:46:36.918Z,63.67
2022-12-01T20:49:05.405Z,55.58
2022-12-01T20:51:35.276Z,62.60
2022-12-01T20:54:38.906Z,63.75
2022-12-01T20:56:56.419Z,60.17
2022-12-01T20:59:23.285Z,56.60
2022-12-01T21:01:50.096Z,62.58
2022-12-01T21:04:17.323Z,63.85
2022-12-01T21:06:44.158Z,70.40
2022-12-01T21:09:12.416Z,64.90
2022-12-01T21:12:06.670Z,65.82
2022-12-01T21:14:44.504Z,70.03
2022-12-01T21:17:42.277Z,67.65
2022-12-01T21:20:27.146Z,75.00
2022-12-01T21:23:22.852Z,69.97
2022-12-01T21:25:50.876Z,71.95
2022-12-01T21:28:24.208Z,66.88
2022-12-01T21:31:07.228Z,71.78
2022-12-01T21:33:36.741Z,71.20
2022-12-01T21:36:15.944Z,77.07
2022-12-01T21:38:44.004Z,73.70
2022-12-01T21:41:26.605Z,69.82
2022-12-01T21:44:07.776Z,74.57
2022-12-01T21:46:35.255Z,73.28
2022-12-01T21:49:02.491Z,87.65
2022-12-01T21:51:30.864Z,78.70
2022-12-01T21:53:58.116Z,86.10
2022-12-01T21:56:28.657Z,78.30
2022-12-01T21:59:02.430Z,74.95
2022-12-01T22:01:32.020Z,81.05
2022-12-01T22:04:02.605Z,80.53
2022-12-01T22:06:39.533Z,82.50
2022-12-01T22:09:33.058Z,78.13
2022-12-01T22:12:29.083Z,79.38
2022-12-01T22:15:01.585Z,83.18
2022-12-01T22:17:29.778Z,79.47
2022-12-01T22:20:01.482Z,89.50
2022-12-01T22:22:32.708Z,82.28
2022-12-01T22:25:27.422Z,78.28
2022-12-01T22:27:54.766Z,78.55
2022-12-01T22:30:24.400Z,81.97
2022-12-01T22:33:05.052Z,85.15
2022-12-01T22:35:44.918Z,79.05
2022-12-01T22:38:36.003Z,78.38
2022-12-01T22:41:14.982Z,80.13
2022-12-01T22:44:00.602Z,88.53
2022-12-01T22:46:32.512Z,84.97
2022-12-01T22:49:22.284Z,81.45
2022-12-01T22:52:01.018Z,84.15
2022-12-01T22:57:35.018Z,78.53
2022-12-01T23:00:16.210Z,86.57
2022-12-01T23:02:43.159Z,87.43
2022-12-01T23:05:30.063Z,82.35
2022-12-01T23:07:57.629Z,84.53
2022-12-01T23:10:35.174Z,82.97
2022-12-01T23:13:15.815Z,88.88
2022-12-01T23:15:48.761Z,87.45
2022-12-01T23:18:29.294Z,86.15
2022-12-01T23:20:59.138Z,87.07
2022-12-01T23:23:29.413Z,88.35
2022-12-01T23:25:56.922Z,92.68
2022-12-01T23:28:24.841Z,89.13
2022-12-01T23:30:55.040Z,88.45
2022-12-01T23:33:25.934Z,94.40
2022-12-01T23:36:08.616Z,96.65
2022-12-01T23:38:42.439Z,86.22
2022-12-01T23:41:38.913Z,83.50
2022-12-01T23:44:36.099Z,89.50
2022-12-01T23:47:05.165Z,78.93
2022-12-01T23:49:35.531Z,65.45
2022-12-01T23:52:03.771Z,79.00
2022-12-01T23:54:34.558Z,66.38
2022-12-01T23:57:10.692Z,63.33
2022-12-01T23:59:38.476Z,84.95
